Terminal Aerodrome Forecast
Issued by NWS

Home | Current Version | Previous Version | Text Only | Print | Product List | Glossary On
Versions: 1 2 3 4 5 6 7 8 9 10 11 12 13 14
000
FTUS46 KSEW 260812 AAB
TAFCLM
TAF AMD
KCLM 260812Z 2608/2706 27009KT P6SM SCT025
      TEMPO 2609/2612 BKN025
     FM261200 28009KT P6SM OVC025
     FM262000 29014G22KT P6SM VCSH BKN030 BKN050
     FM270000 30015G25KT P6SM -SHRA OVC035=

USA.gov is the U.S. government's official web portal to all federal, state and local government web resources and services.